createdAt,value
2022-11-29T00:00:53.435Z,14.65
2022-11-29T00:02:07.046Z,15.95
2022-11-29T00:03:08.661Z,14.30
2022-11-29T00:04:11.858Z,15.85
2022-11-29T00:05:13.463Z,17.27
2022-11-29T00:06:18.367Z,15.55
2022-11-29T00:07:19.984Z,15.18
2022-11-29T00:08:24.432Z,15.23
2022-11-29T00:09:27.643Z,15.55
2022-11-29T00:10:30.187Z,15.50
2022-11-29T00:11:52.265Z,15.25
2022-11-29T00:12:54.813Z,15.13
2022-11-29T00:13:56.317Z,16.27
2022-11-29T00:14:58.811Z,15.40
2022-11-29T00:16:04.451Z,16.65
2022-11-29T00:17:06.951Z,16.30
2022-11-29T00:18:08.765Z,16.23
2022-11-29T00:19:13.168Z,17.58
2022-11-29T00:20:15.642Z,16.10
2022-11-29T00:21:17.164Z,15.15
2022-11-29T00:22:19.739Z,16.08
2022-11-29T00:23:21.503Z,16.55
2022-11-29T00:24:24.254Z,15.23
2022-11-29T00:25:27.409Z,15.73
2022-11-29T00:26:29.912Z,16.48
2022-11-29T00:27:31.663Z,15.73
2022-11-29T00:28:34.936Z,17.90
2022-11-29T00:29:36.433Z,16.13
2022-11-29T00:30:38.991Z,16.48
2022-11-29T00:31:41.343Z,14.57
2022-11-29T00:32:43.910Z,15.77
2022-11-29T00:33:45.590Z,16.98
2022-11-29T00:34:48.367Z,17.17
2022-11-29T00:35:50.299Z,16.00
2022-11-29T00:36:53.219Z,14.55
2022-11-29T00:37:54.942Z,16.92
2022-11-29T00:38:57.815Z,15.80
2022-11-29T00:40:00.278Z,15.75
2022-11-29T00:41:03.390Z,16.83
2022-11-29T00:42:06.006Z,15.77
2022-11-29T00:43:07.550Z,17.17
2022-11-29T00:44:13.933Z,16.23
2022-11-29T00:45:19.373Z,16.05
2022-11-29T00:46:20.942Z,15.48
2022-11-29T00:47:23.591Z,17.15
2022-11-29T00:48:25.455Z,14.98
2022-11-29T00:49:27.905Z,16.83
2022-11-29T00:50:29.407Z,15.73
2022-11-29T00:51:31.943Z,16.80
2022-11-29T00:52:34.466Z,15.60
2022-11-29T00:53:36.554Z,16.50
2022-11-29T00:54:39.035Z,16.13
2022-11-29T00:55:40.660Z,17.13
2022-11-29T00:56:44.503Z,16.23
2022-11-29T00:57:46.034Z,15.80
2022-11-29T00:58:49.323Z,16.38
2022-11-29T00:59:51.782Z,16.70
2022-11-29T01:00:54.420Z,15.50
2022-11-29T01:01:57.204Z,15.82
2022-11-29T01:02:58.767Z,15.55
2022-11-29T01:04:01.385Z,15.27
2022-11-29T01:05:02.978Z,16.33
2022-11-29T01:06:07.533Z,15.98
2022-11-29T01:07:10.050Z,15.95
2022-11-29T01:08:12.277Z,17.27
2022-11-29T01:09:14.772Z,16.67
2022-11-29T01:10:17.143Z,17.15
2022-11-29T01:11:22.347Z,16.73
2022-11-29T01:12:25.214Z,17.67
2022-11-29T01:13:27.688Z,17.33
2022-11-29T01:14:30.260Z,16.55
2022-11-29T01:15:31.899Z,16.92
2022-11-29T01:16:34.820Z,17.20
2022-11-29T01:17:38.760Z,17.10
2022-11-29T01:18:41.707Z,17.30
2022-11-29T01:19:49.341Z,18.30
2022-11-29T01:20:58.019Z,17.20
2022-11-29T01:22:00.518Z,18.02
2022-11-29T01:23:02.047Z,17.45
2022-11-29T01:24:05.074Z,17.55
2022-11-29T01:25:07.947Z,16.50
2022-11-29T01:26:12.799Z,20.00
2022-11-29T01:27:14.410Z,19.95
2022-11-29T01:28:18.252Z,17.85
2022-11-29T01:29:19.758Z,17.67
2022-11-29T01:30:22.294Z,16.83
2022-11-29T01:31:26.069Z,18.05
2022-11-29T01:32:28.600Z,19.52
2022-11-29T01:33:30.123Z,19.92
2022-11-29T01:34:32.626Z,18.70
2022-11-29T01:35:34.114Z,19.58
2022-11-29T01:36:36.577Z,20.55
2022-11-29T01:37:38.079Z,20.80
2022-11-29T01:38:42.231Z,19.58
2022-11-29T01:39:43.759Z,19.20
2022-11-29T01:40:46.802Z,20.95
2022-11-29T01:41:49.280Z,20.88
2022-11-29T01:42:50.764Z,20.70
2022-11-29T01:44:01.112Z,21.15
2022-11-29T01:45:19.463Z,20.98
2022-11-29T01:46:22.277Z,20.85
2022-11-29T01:47:23.855Z,19.42
2022-11-29T01:48:30.746Z,20.58
2022-11-29T01:49:35.795Z,20.55
2022-11-29T01:50:38.935Z,20.83
2022-11-29T01:51:44.993Z,20.77
2022-11-29T01:52:48.640Z,20.08
2022-11-29T01:53:50.257Z,21.67
2022-11-29T01:54:57.642Z,20.83
2022-11-29T01:56:03.976Z,21.55
2022-11-29T01:57:08.346Z,21.73
2022-11-29T01:58:09.939Z,22.02
2022-11-29T01:59:16.625Z,21.50
2022-11-29T02:00:19.662Z,21.55
2022-11-29T02:01:22.259Z,22.27
2022-11-29T02:02:35.404Z,20.60
2022-11-29T02:03:38.128Z,24.13
2022-11-29T02:04:43.253Z,20.77
2022-11-29T02:05:49.806Z,20.63
2022-11-29T02:06:51.347Z,23.15
2022-11-29T02:07:57.473Z,22.85
2022-11-29T02:08:59.127Z,20.83
2022-11-29T02:10:02.901Z,23.45
2022-11-29T02:11:31.249Z,20.13
2022-11-29T02:12:44.425Z,22.13
2022-11-29T02:13:57.631Z,23.15
2022-11-29T02:15:15.800Z,20.95
2022-11-29T02:16:24.525Z,23.50
2022-11-29T02:17:33.914Z,20.35
2022-11-29T02:18:51.745Z,22.77
2022-11-29T02:20:35.886Z,22.77
2022-11-29T02:21:47.056Z,23.00
2022-11-29T02:22:56.508Z,23.00
2022-11-29T02:24:24.222Z,22.27
2022-11-29T02:25:44.914Z,22.55
2022-11-29T02:27:26.274Z,24.73
2022-11-29T02:28:49.788Z,23.30
2022-11-29T02:30:14.001Z,25.10
2022-11-29T02:31:45.855Z,24.65
2022-11-29T02:33:13.740Z,25.00
2022-11-29T02:34:50.854Z,27.80
2022-11-29T02:36:11.256Z,27.80
2022-11-29T02:37:42.449Z,25.13
2022-11-29T02:39:15.244Z,28.30
2022-11-29T02:40:38.347Z,27.55
2022-11-29T02:41:55.339Z,27.13
2022-11-29T02:43:19.288Z,24.77
2022-11-29T02:44:45.964Z,26.38
2022-11-29T02:46:03.213Z,28.80
2022-11-29T02:47:17.494Z,29.55
2022-11-29T02:48:35.266Z,26.63
2022-11-29T02:49:57.999Z,26.75
2022-11-29T02:51:06.943Z,25.13
2022-11-29T02:52:18.214Z,25.48
2022-11-29T02:53:27.928Z,27.05
2022-11-29T02:54:37.494Z,26.65
2022-11-29T02:55:47.288Z,28.33
2022-11-29T02:59:52.448Z,26.65
2022-11-29T03:01:02.833Z,29.15
2022-11-29T03:02:15.239Z,29.20
2022-11-29T03:03:23.868Z,29.17
2022-11-29T03:04:32.601Z,29.45
2022-11-29T03:05:41.771Z,29.60
2022-11-29T03:06:52.281Z,27.30
2022-11-29T03:08:00.664Z,27.77
2022-11-29T03:09:12.527Z,28.55
2022-11-29T03:10:28.511Z,27.55
2022-11-29T03:11:38.975Z,28.95
2022-11-29T03:12:43.638Z,31.90
2022-11-29T03:13:56.792Z,30.17
2022-11-29T03:15:11.935Z,28.52
2022-11-29T03:16:24.374Z,28.42
2022-11-29T03:17:35.390Z,30.50
2022-11-29T03:18:50.771Z,30.25
2022-11-29T03:20:05.920Z,29.40
2022-11-29T03:21:23.754Z,28.85
2022-11-29T03:22:38.145Z,31.40
2022-11-29T03:23:47.391Z,28.10
2022-11-29T03:24:56.876Z,28.65
2022-11-29T03:26:07.343Z,29.25
2022-11-29T03:27:13.255Z,27.75
2022-11-29T03:28:20.167Z,31.38
2022-11-29T03:29:28.006Z,30.52
2022-11-29T03:30:32.341Z,31.40
2022-11-29T03:31:38.076Z,29.85
2022-11-29T03:32:47.349Z,28.40
2022-11-29T03:34:14.371Z,27.58
2022-11-29T03:35:22.311Z,32.40
2022-11-29T03:36:34.551Z,29.92
2022-11-29T03:37:45.934Z,28.92
2022-11-29T03:38:48.792Z,31.50
2022-11-29T03:39:52.997Z,30.98
2022-11-29T03:41:04.094Z,31.58
2022-11-29T03:42:11.231Z,32.00
2022-11-29T03:43:20.163Z,32.17
2022-11-29T03:44:27.671Z,29.77
2022-11-29T03:45:35.883Z,29.63
2022-11-29T03:46:44.179Z,31.70
2022-11-29T03:47:56.787Z,29.40
2022-11-29T03:49:03.078Z,34.17
2022-11-29T03:50:11.802Z,31.08
2022-11-29T03:51:17.938Z,30.20
2022-11-29T03:52:32.729Z,31.90
2022-11-29T03:53:41.850Z,33.78
2022-11-29T03:54:54.441Z,27.90
2022-11-29T03:56:00.338Z,31.15
2022-11-29T03:57:03.393Z,35.20
2022-11-29T03:58:21.071Z,33.25
2022-11-29T03:59:45.557Z,32.22
2022-11-29T04:01:07.505Z,32.10
2022-11-29T04:02:26.994Z,33.30
2022-11-29T04:03:46.259Z,33.30
2022-11-29T04:05:37.978Z,31.33
2022-11-29T04:06:49.641Z,33.75
2022-11-29T04:08:04.851Z,31.35
2022-11-29T04:09:32.509Z,31.60
2022-11-29T04:11:01.067Z,29.40
2022-11-29T04:12:30.050Z,31.70
2022-11-29T04:14:05.646Z,30.83
2022-11-29T04:15:33.600Z,32.15
2022-11-29T04:17:00.116Z,33.83
2022-11-29T04:18:33.828Z,31.08
2022-11-29T04:20:11.650Z,33.17
2022-11-29T04:21:31.364Z,33.92
2022-11-29T04:22:57.580Z,32.70
2022-11-29T04:24:22.066Z,36.83
2022-11-29T04:25:41.164Z,31.83
2022-11-29T04:27:16.420Z,31.70
2022-11-29T04:28:57.200Z,32.05
2022-11-29T04:30:06.619Z,33.95
2022-11-29T04:31:18.246Z,32.22
2022-11-29T04:32:41.795Z,30.05
2022-11-29T04:34:09.877Z,33.25
2022-11-29T04:35:29.691Z,35.45
2022-11-29T04:36:49.720Z,31.00
2022-11-29T04:38:14.450Z,35.97
2022-11-29T04:39:57.478Z,31.10
2022-11-29T04:41:19.785Z,32.20
2022-11-29T04:42:41.357Z,31.02
2022-11-29T04:44:02.564Z,33.60
2022-11-29T04:45:26.157Z,32.17
2022-11-29T04:46:53.083Z,34.15
2022-11-29T04:48:09.190Z,35.15
2022-11-29T04:49:26.723Z,32.45
2022-11-29T04:50:46.468Z,32.80
2022-11-29T04:52:02.455Z,31.73
2022-11-29T04:53:25.297Z,34.75
2022-11-29T04:54:34.512Z,32.65
2022-11-29T04:55:46.620Z,33.90
2022-11-29T04:56:53.623Z,32.13
2022-11-29T04:58:00.193Z,32.17
2022-11-29T04:59:08.639Z,33.80
2022-11-29T05:00:12.461Z,33.92
2022-11-29T05:01:24.093Z,36.13
2022-11-29T05:02:34.987Z,32.83
2022-11-29T05:03:41.794Z,31.40
2022-11-29T05:04:52.939Z,34.97
2022-11-29T05:06:02.695Z,33.40
2022-11-29T05:07:12.591Z,33.30
2022-11-29T05:08:27.478Z,30.58
2022-11-29T05:09:44.355Z,31.30
2022-11-29T05:10:56.287Z,31.50
2022-11-29T05:12:09.500Z,32.30
2022-11-29T05:13:18.897Z,30.27
2022-11-29T05:14:32.973Z,29.77
2022-11-29T05:15:49.737Z,31.13
2022-11-29T05:17:01.847Z,29.38
2022-11-29T05:18:15.048Z,30.63
2022-11-29T05:19:34.249Z,29.85
2022-11-29T05:20:46.095Z,33.17
2022-11-29T05:21:59.760Z,31.58
2022-11-29T05:23:18.826Z,32.55
2022-11-29T05:24:35.734Z,28.52
2022-11-29T05:25:45.773Z,32.22
2022-11-29T05:26:57.555Z,29.02
2022-11-29T05:28:10.371Z,30.10
2022-11-29T05:29:21.279Z,32.25
2022-11-29T05:30:24.739Z,31.45
2022-11-29T05:31:41.796Z,30.42
2022-11-29T05:32:57.534Z,28.58
2022-11-29T05:34:17.456Z,28.02
2022-11-29T05:35:47.408Z,28.88
2022-11-29T05:37:00.154Z,28.20
2022-11-29T05:38:12.507Z,27.40
2022-11-29T05:39:37.650Z,25.40
2022-11-29T05:40:46.324Z,27.73
2022-11-29T05:42:11.765Z,26.63
2022-11-29T05:43:37.727Z,28.15
2022-11-29T05:44:46.588Z,27.23
2022-11-29T05:45:55.649Z,28.80
2022-11-29T05:47:01.801Z,29.63
2022-11-29T05:48:09.042Z,26.20
2022-11-29T05:49:21.921Z,27.35
2022-11-29T05:50:29.681Z,27.33
2022-11-29T05:51:41.434Z,25.23
2022-11-29T05:52:51.767Z,29.30
2022-11-29T05:54:04.119Z,30.77
2022-11-29T05:55:20.510Z,26.48
2022-11-29T05:56:28.996Z,24.10
2022-11-29T05:57:42.522Z,25.13
2022-11-29T05:58:51.238Z,25.95
2022-11-29T05:59:54.153Z,26.65
2022-11-29T06:01:02.685Z,28.45
2022-11-29T06:02:22.740Z,26.40
2022-11-29T06:03:33.700Z,25.05
2022-11-29T06:04:55.938Z,24.17
2022-11-29T06:06:02.659Z,27.60
2022-11-29T06:07:14.161Z,28.80
2022-11-29T06:08:21.062Z,26.10
2022-11-29T06:09:29.266Z,28.10
2022-11-29T06:10:34.603Z,25.73
2022-11-29T06:11:43.252Z,24.83
2022-11-29T06:13:00.239Z,26.20
2022-11-29T06:14:09.631Z,26.65
2022-11-29T06:15:28.685Z,26.48
2022-11-29T06:16:51.327Z,25.73
2022-11-29T06:18:03.170Z,28.80
2022-11-29T06:19:33.255Z,24.05
2022-11-29T06:21:00.019Z,27.75
2022-11-29T06:22:20.786Z,24.38
2022-11-29T06:23:36.536Z,27.13
2022-11-29T06:24:52.507Z,25.70
2022-11-29T06:26:10.303Z,24.58
2022-11-29T06:27:35.181Z,25.90
2022-11-29T06:28:51.297Z,25.27
2022-11-29T06:30:03.095Z,24.73
2022-11-29T06:31:13.064Z,24.17
2022-11-29T06:32:25.144Z,25.05
2022-11-29T06:33:35.505Z,25.52
2022-11-29T06:34:46.133Z,24.10
2022-11-29T06:35:57.663Z,23.58
2022-11-29T06:37:04.737Z,25.60
2022-11-29T06:38:14.754Z,24.27
2022-11-29T06:39:16.723Z,23.27
2022-11-29T06:40:19.358Z,23.38
2022-11-29T06:41:23.680Z,26.35
2022-11-29T06:42:26.163Z,28.20
2022-11-29T06:43:28.338Z,22.80
2022-11-29T06:44:32.999Z,25.85
2022-11-29T06:45:34.987Z,26.75
2022-11-29T06:46:46.313Z,25.20
2022-11-29T06:47:55.046Z,26.42
2022-11-29T06:49:06.949Z,26.30
2022-11-29T06:50:27.756Z,25.42
2022-11-29T06:51:34.441Z,26.67
2022-11-29T06:52:44.727Z,27.20
2022-11-29T06:53:52.413Z,25.60
2022-11-29T06:55:07.559Z,27.77
2022-11-29T06:56:22.212Z,23.98
2022-11-29T06:57:32.113Z,26.75
2022-11-29T06:58:46.450Z,25.42
2022-11-29T07:00:03.492Z,24.17
2022-11-29T07:01:14.273Z,25.33
2022-11-29T07:02:40.832Z,24.13
2022-11-29T07:03:59.863Z,26.27
2022-11-29T07:05:12.300Z,26.20
2022-11-29T07:06:21.169Z,29.08
2022-11-29T07:07:24.898Z,26.90
2022-11-29T07:08:27.970Z,25.27
2022-11-29T07:09:34.103Z,27.13
2022-11-29T07:10:39.365Z,26.30
2022-11-29T07:11:42.358Z,25.23
2022-11-29T07:12:46.297Z,27.00
2022-11-29T07:13:48.374Z,27.85
2022-11-29T07:14:52.844Z,28.38
2022-11-29T07:16:04.160Z,23.70
2022-11-29T07:17:16.002Z,24.00
2022-11-29T07:18:29.159Z,27.48
2022-11-29T07:19:42.868Z,22.88
2022-11-29T07:20:57.559Z,28.60
2022-11-29T07:22:06.290Z,26.83
2022-11-29T07:23:19.027Z,23.65
2022-11-29T07:24:33.993Z,24.88
2022-11-29T07:25:44.242Z,25.98
2022-11-29T07:26:59.330Z,25.27
2022-11-29T07:28:10.894Z,23.63
2022-11-29T07:29:27.869Z,26.20
2022-11-29T07:30:38.770Z,27.20
2022-11-29T07:31:55.464Z,25.13
2022-11-29T07:33:09.042Z,27.88
2022-11-29T07:34:19.423Z,24.65
2022-11-29T07:35:30.280Z,24.15
2022-11-29T07:36:40.943Z,24.80
2022-11-29T07:37:57.726Z,24.75
2022-11-29T07:39:16.278Z,27.17
2022-11-29T07:40:25.103Z,28.58
2022-11-29T07:41:35.414Z,28.10
2022-11-29T07:42:46.207Z,25.83
2022-11-29T07:43:55.374Z,28.00
2022-11-29T07:45:07.266Z,28.55
2022-11-29T07:46:11.177Z,29.00
2022-11-29T07:47:13.411Z,27.95
2022-11-29T07:48:18.142Z,31.58
2022-11-29T07:49:20.611Z,27.70
2022-11-29T07:50:22.335Z,26.83
2022-11-29T07:51:24.909Z,29.67
2022-11-29T07:52:26.660Z,26.15
2022-11-29T07:53:30.244Z,25.85
2022-11-29T07:54:31.818Z,25.77
2022-11-29T07:55:36.018Z,28.52
2022-11-29T07:56:37.514Z,26.85
2022-11-29T07:57:39.951Z,26.42
2022-11-29T07:58:42.682Z,26.52
2022-11-29T07:59:44.470Z,27.85
2022-11-29T08:00:47.311Z,26.92
2022-11-29T08:01:50.323Z,26.92
2022-11-29T08:02:53.122Z,29.20
2022-11-29T08:03:54.631Z,29.98
2022-11-29T08:04:57.308Z,28.25
2022-11-29T08:05:59.957Z,24.65
2022-11-29T08:07:02.496Z,25.90
2022-11-29T08:08:04.272Z,27.77
2022-11-29T08:09:07.536Z,28.17
2022-11-29T08:10:12.018Z,29.35
2022-11-29T08:11:15.833Z,28.67
2022-11-29T08:12:18.396Z,28.58
2022-11-29T08:13:21.544Z,31.60
2022-11-29T08:14:24.482Z,31.63
2022-11-29T08:15:26.032Z,32.67
2022-11-29T08:16:28.672Z,31.65
2022-11-29T08:17:31.539Z,31.13
2022-11-29T08:18:34.256Z,30.92
2022-11-29T08:19:35.971Z,31.10
2022-11-29T08:20:39.135Z,31.88
2022-11-29T08:21:46.729Z,33.55
2022-11-29T08:22:54.213Z,31.92
2022-11-29T08:23:56.813Z,33.15
2022-11-29T08:24:59.787Z,31.95
2022-11-29T08:26:02.991Z,32.40
2022-11-29T08:27:05.475Z,32.08
2022-11-29T08:28:07.199Z,34.15
2022-11-29T08:29:09.775Z,35.15
2022-11-29T08:30:11.677Z,34.13
2022-11-29T08:31:14.704Z,35.75
2022-11-29T08:32:16.594Z,34.28
2022-11-29T08:33:20.608Z,33.30
2022-11-29T08:34:23.069Z,36.50
2022-11-29T08:35:25.659Z,36.10
2022-11-29T08:36:27.319Z,34.35
2022-11-29T08:37:29.811Z,32.35
2022-11-29T08:38:32.320Z,34.17
2022-11-29T08:39:34.832Z,34.10
2022-11-29T08:40:36.369Z,32.40
2022-11-29T08:41:39.134Z,30.67
2022-11-29T08:42:41.694Z,32.20
2022-11-29T08:43:44.925Z,32.85
2022-11-29T08:44:48.024Z,34.38
2022-11-29T08:45:52.054Z,32.65
2022-11-29T08:47:12.074Z,32.65
2022-11-29T08:48:15.065Z,31.58
2022-11-29T08:49:18.790Z,30.35
2022-11-29T08:50:21.423Z,33.20
2022-11-29T08:51:22.948Z,30.05
2022-11-29T08:52:43.377Z,30.17
2022-11-29T08:53:51.613Z,27.98
2022-11-29T08:54:53.262Z,29.02
2022-11-29T08:56:00.160Z,26.75
2022-11-29T08:57:38.152Z,28.15
2022-11-29T08:58:25.619Z,28.00
2022-11-29T08:59:28.089Z,28.50
2022-11-29T09:00:30.881Z,26.83
2022-11-29T09:01:33.684Z,28.42
2022-11-29T09:02:35.945Z,23.38
2022-11-29T09:03:56.255Z,24.40
2022-11-29T09:05:00.096Z,28.48
2022-11-29T09:06:12.012Z,29.20
2022-11-29T09:07:16.012Z,24.67
2022-11-29T09:08:19.095Z,27.63
2022-11-29T09:09:21.874Z,24.63
2022-11-29T09:10:24.392Z,28.40
2022-11-29T09:11:28.835Z,26.60
2022-11-29T09:12:30.806Z,28.42
2022-11-29T09:13:33.322Z,29.35
2022-11-29T09:14:35.977Z,24.70
2022-11-29T09:15:37.767Z,26.08
2022-11-29T09:16:40.599Z,25.25
2022-11-29T09:17:43.146Z,25.40
2022-11-29T09:18:51.293Z,27.50
2022-11-29T09:19:54.261Z,28.13
2022-11-29T09:20:59.232Z,27.23
2022-11-29T09:22:01.737Z,27.63
2022-11-29T09:23:04.238Z,24.70
2022-11-29T09:24:06.659Z,29.95
2022-11-29T09:25:10.185Z,26.30
2022-11-29T09:26:17.627Z,31.17
2022-11-29T09:27:20.122Z,25.52
2022-11-29T09:28:22.886Z,25.13
2022-11-29T09:29:25.428Z,27.92
2022-11-29T09:30:29.838Z,26.10
2022-11-29T09:31:35.443Z,27.85
2022-11-29T09:32:37.249Z,23.08
2022-11-29T09:33:40.509Z,26.75
2022-11-29T09:34:43.276Z,25.90
2022-11-29T09:35:45.325Z,27.88
2022-11-29T09:36:49.166Z,27.02
2022-11-29T09:37:51.799Z,26.55
2022-11-29T09:38:53.312Z,24.10
2022-11-29T09:39:55.773Z,22.35
2022-11-29T09:41:05.098Z,29.08
2022-11-29T09:42:19.976Z,25.67
2022-11-29T09:43:29.958Z,25.95
2022-11-29T09:44:42.079Z,27.27
2022-11-29T09:45:48.781Z,29.42
2022-11-29T09:47:02.463Z,28.55
2022-11-29T09:48:29.338Z,26.60
2022-11-29T09:49:48.168Z,28.13
2022-11-29T09:50:54.959Z,27.23
2022-11-29T09:52:05.621Z,26.48
2022-11-29T09:53:27.953Z,30.60
2022-11-29T09:54:36.814Z,27.95
2022-11-29T09:55:55.718Z,26.25
2022-11-29T09:56:58.344Z,25.17
2022-11-29T09:58:03.696Z,29.88
2022-11-29T09:59:11.769Z,26.00
2022-11-29T10:00:16.596Z,28.60
2022-11-29T10:01:24.231Z,26.50
2022-11-29T10:02:37.342Z,25.55
2022-11-29T10:03:44.448Z,28.17
2022-11-29T10:04:51.592Z,30.63
2022-11-29T10:05:59.480Z,25.67
2022-11-29T10:07:07.574Z,30.80
2022-11-29T10:08:19.428Z,28.63
2022-11-29T10:09:29.563Z,26.35
2022-11-29T10:10:41.501Z,26.25
2022-11-29T10:11:56.447Z,27.35
2022-11-29T10:13:04.822Z,27.08
2022-11-29T10:14:15.147Z,26.20
2022-11-29T10:15:22.457Z,27.63
2022-11-29T10:16:29.587Z,25.15
2022-11-29T10:17:37.869Z,25.88
2022-11-29T10:18:46.237Z,24.58
2022-11-29T10:19:53.733Z,25.20
2022-11-29T10:20:58.937Z,27.05
2022-11-29T10:22:06.946Z,25.48
2022-11-29T10:23:17.034Z,25.65
2022-11-29T10:24:23.803Z,25.08
2022-11-29T10:25:30.563Z,23.58
2022-11-29T10:26:35.501Z,26.65
2022-11-29T10:27:41.182Z,27.17
2022-11-29T10:28:47.372Z,24.10
2022-11-29T10:29:51.178Z,25.55
2022-11-29T10:30:54.649Z,26.10
2022-11-29T10:31:59.219Z,26.77
2022-11-29T10:33:02.544Z,25.70
2022-11-29T10:34:13.854Z,26.05
2022-11-29T10:35:18.998Z,24.92
2022-11-29T10:36:28.679Z,25.92
2022-11-29T10:37:32.669Z,23.90
2022-11-29T10:38:34.221Z,23.52
2022-11-29T10:39:42.040Z,23.60
2022-11-29T10:40:49.900Z,24.83
2022-11-29T10:41:56.547Z,24.73
2022-11-29T10:42:58.261Z,21.90
2022-11-29T10:44:01.882Z,23.73
2022-11-29T10:45:08.668Z,23.52
2022-11-29T10:46:16.094Z,25.83
2022-11-29T10:47:17.796Z,24.05
2022-11-29T10:48:22.878Z,24.15
2022-11-29T10:49:29.106Z,23.42
2022-11-29T10:50:33.758Z,25.40
2022-11-29T10:51:36.323Z,22.80
2022-11-29T10:52:39.382Z,25.35
2022-11-29T10:53:41.882Z,24.65
2022-11-29T10:54:45.848Z,23.60
2022-11-29T10:55:54.214Z,22.17
2022-11-29T10:56:57.212Z,22.35
2022-11-29T10:58:15.918Z,26.08
2022-11-29T10:59:23.366Z,24.40
2022-11-29T11:00:27.759Z,22.08
2022-11-29T11:01:32.318Z,24.95
2022-11-29T11:02:34.740Z,23.25
2022-11-29T11:03:39.930Z,24.33
2022-11-29T11:04:46.422Z,22.08
2022-11-29T11:06:00.106Z,21.55
2022-11-29T11:07:05.025Z,25.20
2022-11-29T11:08:17.421Z,21.67
2022-11-29T11:09:22.449Z,22.50
2022-11-29T11:10:27.554Z,20.20
2022-11-29T11:11:32.401Z,21.25
2022-11-29T11:12:36.827Z,20.73
2022-11-29T11:13:40.806Z,20.70
2022-11-29T11:14:45.565Z,19.55
2022-11-29T11:15:47.378Z,21.42
2022-11-29T11:16:50.175Z,21.48
2022-11-29T11:17:57.651Z,22.83
2022-11-29T11:19:30.456Z,20.80
2022-11-29T11:20:35.634Z,21.98
2022-11-29T11:21:40.263Z,23.15
2022-11-29T11:22:41.774Z,22.50
2022-11-29T11:23:55.631Z,23.10
2022-11-29T11:25:00.078Z,23.33
2022-11-29T11:26:05.344Z,24.30
2022-11-29T11:27:08.181Z,23.10
2022-11-29T11:28:20.308Z,22.35
2022-11-29T11:29:26.549Z,24.05
2022-11-29T11:30:29.309Z,22.80
2022-11-29T11:31:35.374Z,21.88
2022-11-29T11:32:37.963Z,22.50
2022-11-29T11:33:41.364Z,20.85
2022-11-29T11:34:52.506Z,23.75
2022-11-29T11:36:12.238Z,22.10
2022-11-29T11:37:21.535Z,21.95
2022-11-29T11:38:24.269Z,23.13
2022-11-29T11:39:29.039Z,22.23
2022-11-29T11:40:32.721Z,21.58
2022-11-29T11:42:05.286Z,21.55
2022-11-29T11:43:19.815Z,20.05
2022-11-29T11:44:47.788Z,19.58
2022-11-29T11:45:54.353Z,22.70
2022-11-29T11:46:57.404Z,20.05
2022-11-29T11:48:02.904Z,21.90
2022-11-29T11:49:13.490Z,19.00
2022-11-29T11:50:25.992Z,21.20
2022-11-29T11:51:28.671Z,21.55
2022-11-29T11:52:40.686Z,21.98
2022-11-29T11:53:52.455Z,19.95
2022-11-29T11:55:01.016Z,20.10
2022-11-29T11:56:07.225Z,20.13
2022-11-29T11:57:17.042Z,17.77
2022-11-29T11:58:23.495Z,24.05
2022-11-29T11:59:28.037Z,23.30
2022-11-29T12:02:26.211Z,20.10
2022-11-29T12:03:43.165Z,20.13
2022-11-29T12:04:46.178Z,20.13
2022-11-29T12:05:49.797Z,20.70
2022-11-29T12:06:55.727Z,21.58
2022-11-29T12:08:09.021Z,21.45
2022-11-29T12:09:27.389Z,22.45
2022-11-29T12:10:34.688Z,21.73
2022-11-29T12:11:43.786Z,19.58
2022-11-29T12:12:48.512Z,23.02
2022-11-29T12:13:54.999Z,22.33
2022-11-29T12:15:00.851Z,20.08
2022-11-29T12:16:09.751Z,23.52
2022-11-29T12:17:20.350Z,20.67
2022-11-29T12:18:30.504Z,19.45
2022-11-29T12:19:41.119Z,25.27
2022-11-29T12:20:51.631Z,23.75
2022-11-29T12:22:00.733Z,18.98
2022-11-29T12:23:24.761Z,21.20
2022-11-29T12:24:31.798Z,20.67
2022-11-29T12:25:43.606Z,20.90
2022-11-29T12:26:56.981Z,20.52
2022-11-29T12:28:00.735Z,20.38
2022-11-29T12:29:03.540Z,23.92
2022-11-29T12:30:13.188Z,22.48
2022-11-29T12:31:34.313Z,22.00
2022-11-29T12:32:55.365Z,21.98
2022-11-29T12:34:09.053Z,22.70
2022-11-29T12:35:36.892Z,20.40
2022-11-29T12:36:47.924Z,24.38
2022-11-29T12:37:53.324Z,23.98
2022-11-29T12:39:09.439Z,24.35
2022-11-29T12:40:20.282Z,21.35
2022-11-29T12:41:38.080Z,22.30
2022-11-29T12:42:46.299Z,23.55
2022-11-29T12:43:59.866Z,23.33
2022-11-29T12:45:16.388Z,21.92
2022-11-29T12:46:24.295Z,24.20
2022-11-29T12:47:45.188Z,24.40
2022-11-29T12:48:59.917Z,23.25
2022-11-29T12:50:11.725Z,23.90
2022-11-29T12:51:23.405Z,23.65
2022-11-29T12:52:33.074Z,23.90
2022-11-29T12:53:51.833Z,21.77
2022-11-29T12:55:05.105Z,23.13
2022-11-29T12:56:16.113Z,23.27
2022-11-29T12:57:29.237Z,24.33
2022-11-29T12:58:44.233Z,24.52
2022-11-29T13:00:09.210Z,24.92
2022-11-29T13:01:20.190Z,23.10
2022-11-29T13:02:31.961Z,23.48
2022-11-29T13:03:44.667Z,23.63
2022-11-29T13:04:59.734Z,24.88
2022-11-29T13:06:17.508Z,23.27
2022-11-29T13:07:29.208Z,24.63
2022-11-29T13:08:48.829Z,22.73
2022-11-29T13:10:17.810Z,24.27
2022-11-29T13:11:25.984Z,24.55
2022-11-29T13:12:36.183Z,23.50
2022-11-29T13:13:41.671Z,25.45
2022-11-29T13:14:51.848Z,24.90
2022-11-29T13:16:04.413Z,25.48
2022-11-29T13:17:22.949Z,25.05
2022-11-29T13:18:33.308Z,23.10
2022-11-29T13:19:43.531Z,25.67
2022-11-29T13:20:52.682Z,23.15
2022-11-29T13:22:02.788Z,24.65
2022-11-29T13:23:15.921Z,25.98
2022-11-29T13:24:25.591Z,23.58
2022-11-29T13:25:33.317Z,25.65
2022-11-29T13:26:39.576Z,24.10
2022-11-29T13:27:54.760Z,23.60
2022-11-29T13:28:58.123Z,25.52
2022-11-29T13:30:01.888Z,24.63
2022-11-29T13:31:08.913Z,24.70
2022-11-29T13:32:30.637Z,26.05
2022-11-29T13:33:52.233Z,24.85
2022-11-29T13:34:59.818Z,26.70
2022-11-29T13:36:13.048Z,26.70
2022-11-29T13:37:24.329Z,24.25
2022-11-29T13:38:32.524Z,25.40
2022-11-29T13:39:50.853Z,24.67
2022-11-29T13:41:00.235Z,25.35
2022-11-29T13:42:11.157Z,26.10
2022-11-29T13:43:22.643Z,23.73
2022-11-29T13:44:33.560Z,25.48
2022-11-29T13:45:42.688Z,23.58
2022-11-29T13:46:50.984Z,24.65
2022-11-29T13:47:55.908Z,24.63
2022-11-29T13:48:58.687Z,28.15
2022-11-29T13:50:02.476Z,27.27
2022-11-29T13:51:24.573Z,25.33
2022-11-29T13:52:38.432Z,26.90
2022-11-29T13:53:48.830Z,25.33
2022-11-29T13:55:05.963Z,24.95
2022-11-29T13:56:15.102Z,26.63
2022-11-29T13:57:17.718Z,24.30
2022-11-29T13:58:40.965Z,24.00
2022-11-29T13:59:49.447Z,22.83
2022-11-29T14:00:52.799Z,25.35
2022-11-29T14:01:56.871Z,26.42
2022-11-29T14:03:36.796Z,26.75
2022-11-29T14:04:45.973Z,23.60
2022-11-29T14:05:49.486Z,23.50
2022-11-29T14:07:03.362Z,23.33
2022-11-29T14:08:26.305Z,23.50
2022-11-29T14:09:33.438Z,22.73
2022-11-29T14:10:36.282Z,25.15
2022-11-29T14:11:48.617Z,24.35
2022-11-29T14:12:55.484Z,25.58
2022-11-29T14:14:05.072Z,24.70
2022-11-29T14:15:22.341Z,23.33
2022-11-29T14:16:31.470Z,24.10
2022-11-29T14:17:46.335Z,23.58
2022-11-29T14:19:04.629Z,23.48
2022-11-29T14:20:50.111Z,22.05
2022-11-29T14:22:23.141Z,24.48
2022-11-29T14:23:38.021Z,23.27
2022-11-29T14:24:40.781Z,20.73
2022-11-29T14:26:03.866Z,22.02
2022-11-29T14:27:54.261Z,24.85
2022-11-29T14:28:59.474Z,21.83
2022-11-29T14:30:01.024Z,18.73
2022-11-29T14:31:04.625Z,21.50
2022-11-29T14:32:23.327Z,20.65
2022-11-29T14:33:58.595Z,18.98
2022-11-29T14:35:06.047Z,19.92
2022-11-29T14:36:21.279Z,20.08
2022-11-29T14:37:36.226Z,19.45
2022-11-29T14:38:46.639Z,17.52
2022-11-29T14:39:52.927Z,21.35
2022-11-29T14:41:02.022Z,19.70
2022-11-29T14:42:14.449Z,20.42
2022-11-29T14:43:23.043Z,19.02
2022-11-29T14:44:29.322Z,19.40
2022-11-29T14:45:35.025Z,20.65
2022-11-29T14:46:36.721Z,20.55
2022-11-29T14:47:49.170Z,18.73
2022-11-29T14:48:59.991Z,21.08
2022-11-29T14:50:07.307Z,17.75
2022-11-29T14:51:11.465Z,19.83
2022-11-29T14:52:27.176Z,19.75
2022-11-29T14:53:34.162Z,18.92
2022-11-29T14:54:54.337Z,17.40
2022-11-29T14:56:34.923Z,19.17
2022-11-29T14:58:13.576Z,18.83
2022-11-29T14:59:52.310Z,19.00
2022-11-29T15:01:10.624Z,18.75
2022-11-29T15:02:25.955Z,18.60
2022-11-29T15:03:33.881Z,18.77
2022-11-29T15:04:39.151Z,18.67
2022-11-29T15:05:45.060Z,21.00